createdAt,value
2023-02-08T00:01:22.971Z,-6.36
2023-02-08T00:03:50.760Z,-6.37
2023-02-08T00:06:18.102Z,-6.33
2023-02-08T00:08:49.646Z,-6.33
2023-02-08T00:11:16.810Z,-6.40
2023-02-08T00:13:43.917Z,-6.47
2023-02-08T00:16:18.834Z,-6.53
2023-02-08T00:18:46.145Z,-6.61
2023-02-08T00:21:16.865Z,-6.65
2023-02-08T00:23:44.830Z,-6.72
2023-02-08T00:26:12.472Z,-6.79
2023-02-08T00:28:41.153Z,-6.89
2023-02-08T00:31:08.486Z,-6.91
2023-02-08T00:33:35.705Z,-6.88
2023-02-08T00:36:10.679Z,-6.82
2023-02-08T00:38:37.800Z,-6.82
2023-02-08T00:41:05.732Z,-6.86
2023-02-08T00:43:32.905Z,-6.88
2023-02-08T00:46:00.986Z,-6.89
2023-02-08T00:48:28.551Z,-6.90
2023-02-08T00:51:15.901Z,-6.90
2023-02-08T00:53:44.076Z,-6.89
2023-02-08T00:56:12.926Z,-6.89
2023-02-08T00:58:49.087Z,-6.88
2023-02-08T01:01:17.678Z,-6.92
2023-02-08T01:03:44.776Z,-6.95
2023-02-08T01:06:17.781Z,-6.98
2023-02-08T01:08:45.558Z,-7.04
2023-02-08T01:11:18.626Z,-7.09
2023-02-08T01:13:45.843Z,-7.15
2023-02-08T01:16:22.921Z,-7.17
2023-02-08T01:18:52.211Z,-7.21
2023-02-08T01:21:25.764Z,-7.26
2023-02-08T01:23:53.607Z,-7.26
2023-02-08T01:26:22.725Z,-7.20
2023-02-08T01:29:00.072Z,-7.16
2023-02-08T01:31:36.322Z,-7.14
2023-02-08T01:34:08.722Z,-7.12
2023-02-08T01:36:37.430Z,-7.13
2023-02-08T01:39:06.649Z,-7.11
2023-02-08T01:41:37.549Z,-7.08
2023-02-08T01:44:15.167Z,-7.07
2023-02-08T01:46:48.700Z,-6.97
2023-02-08T01:49:42.649Z,-7.03
2023-02-08T01:52:17.035Z,-7.03
2023-02-08T01:54:58.008Z,-7.10
2023-02-08T01:57:31.664Z,-7.08
2023-02-08T02:00:16.285Z,-7.06
2023-02-08T02:02:47.798Z,-7.09
2023-02-08T02:05:17.337Z,-7.00
2023-02-08T02:07:44.831Z,-7.04
2023-02-08T02:10:32.827Z,-7.07
2023-02-08T02:13:22.626Z,-7.01
2023-02-08T02:15:50.543Z,-7.12
2023-02-08T02:18:28.940Z,-7.21
2023-02-08T02:21:08.236Z,-7.25
2023-02-08T02:24:21.245Z,-7.26
2023-02-08T02:27:16.042Z,-7.35
2023-02-08T02:29:52.415Z,-7.37
2023-02-08T02:32:41.467Z,-7.41
2023-02-08T02:35:19.040Z,-7.45
2023-02-08T02:37:49.632Z,-7.53
2023-02-08T02:40:31.192Z,-7.57
2023-02-08T02:43:47.767Z,-7.62
2023-02-08T02:46:43.148Z,-7.67
2023-02-08T02:49:19.048Z,-7.69
2023-02-08T02:51:49.661Z,-7.72
2023-02-08T02:54:23.398Z,-7.75
2023-02-08T02:57:02.525Z,-7.78
2023-02-08T02:59:36.105Z,-7.80
2023-02-08T03:02:04.480Z,-7.85
2023-02-08T03:04:34.620Z,-7.89
2023-02-08T03:07:46.450Z,-7.92
2023-02-08T03:10:19.642Z,-7.94
2023-02-08T03:13:24.594Z,-7.97
2023-02-08T03:16:07.029Z,-7.94
2023-02-08T03:19:21.090Z,-7.94
2023-02-08T03:22:15.716Z,-7.96
2023-02-08T03:24:51.994Z,-7.92
2023-02-08T03:27:23.434Z,-7.97
2023-02-08T03:30:07.263Z,-7.97
2023-02-08T03:32:46.282Z,-7.99
2023-02-08T03:35:22.862Z,-7.99
2023-02-08T03:38:04.040Z,-8.01
2023-02-08T03:40:59.261Z,-8.06
2023-02-08T03:43:52.345Z,-8.06
2023-02-08T03:46:30.949Z,-8.10
2023-02-08T03:49:07.740Z,-8.08
2023-02-08T03:51:42.692Z,-8.11
2023-02-08T03:54:17.634Z,-8.11
2023-02-08T03:56:50.077Z,-8.08
2023-02-08T03:59:38.985Z,-8.08
2023-02-08T04:02:10.746Z,-8.09
2023-02-08T04:04:42.176Z,-8.08
2023-02-08T04:07:09.693Z,-8.10
2023-02-08T04:09:38.749Z,-8.11
2023-02-08T04:12:06.708Z,-8.10
2023-02-08T04:14:33.904Z,-8.11
2023-02-08T04:17:11.747Z,-8.10
2023-02-08T04:19:38.904Z,-8.11
2023-02-08T04:22:06.564Z,-8.06
2023-02-08T04:24:33.777Z,-8.04
2023-02-08T04:27:06.043Z,-8.02
2023-02-08T04:29:33.442Z,-7.96
2023-02-08T04:32:00.706Z,-7.97
2023-02-08T04:34:27.989Z,-7.99
2023-02-08T04:37:00.659Z,-8.02
2023-02-08T04:39:30.655Z,-8.05
2023-02-08T04:42:02.296Z,-8.06
2023-02-08T04:44:32.810Z,-8.07
2023-02-08T04:47:04.966Z,-8.09
2023-02-08T04:49:32.072Z,-8.14
2023-02-08T04:51:59.249Z,-8.18
2023-02-08T04:54:28.185Z,-8.22
2023-02-08T04:56:55.474Z,-8.24
2023-02-08T04:59:22.657Z,-8.28
2023-02-08T05:01:49.785Z,-8.30
2023-02-08T05:04:16.902Z,-8.32
2023-02-08T05:06:46.793Z,-8.33
2023-02-08T05:09:15.239Z,-8.34
2023-02-08T05:11:42.572Z,-8.35
2023-02-08T05:14:12.455Z,-8.35
2023-02-08T05:16:39.544Z,-8.34
2023-02-08T05:19:06.692Z,-8.37
2023-02-08T05:21:33.898Z,-8.41
2023-02-08T05:24:01.033Z,-8.38
2023-02-08T05:26:33.910Z,-8.38
2023-02-08T05:29:01.021Z,-8.34
2023-02-08T05:31:30.161Z,-8.33
2023-02-08T05:33:57.532Z,-8.33
2023-02-08T05:36:24.932Z,-8.33
2023-02-08T05:38:53.545Z,-8.30
2023-02-08T05:41:20.754Z,-8.32
2023-02-08T05:43:47.923Z,-8.36
2023-02-08T05:46:15.074Z,-8.38
2023-02-08T05:48:42.508Z,-8.37
2023-02-08T05:51:10.192Z,-8.36
2023-02-08T05:53:38.953Z,-8.33
2023-02-08T05:56:06.457Z,-8.33
2023-02-08T05:58:34.215Z,-8.29
2023-02-08T06:01:01.348Z,-8.28
2023-02-08T06:03:28.479Z,-8.30
2023-02-08T06:06:00.921Z,-8.29
2023-02-08T06:08:28.645Z,-8.25
2023-02-08T06:10:55.748Z,-8.21
2023-02-08T06:13:24.286Z,-8.18
2023-02-08T06:15:51.403Z,-8.18
2023-02-08T06:18:21.584Z,-8.18
2023-02-08T06:20:48.827Z,-8.22
2023-02-08T06:23:16.459Z,-8.21
2023-02-08T06:25:43.599Z,-8.13
2023-02-08T06:28:10.937Z,-8.18
2023-02-08T06:30:38.897Z,-8.21
2023-02-08T06:33:06.251Z,-8.20
2023-02-08T06:35:33.364Z,-8.17
2023-02-08T06:38:00.850Z,-8.14
2023-02-08T06:40:28.008Z,-8.10
2023-02-08T06:42:55.190Z,-8.17
2023-02-08T06:45:22.371Z,-8.19
2023-02-08T06:47:52.569Z,-8.19
2023-02-08T06:50:19.744Z,-8.22
2023-02-08T06:52:47.821Z,-8.19
2023-02-08T06:55:15.253Z,-8.08
2023-02-08T06:57:42.411Z,-8.04
2023-02-08T07:00:10.250Z,-8.00
2023-02-08T07:02:37.464Z,-7.93
2023-02-08T07:05:05.148Z,-7.87
2023-02-08T07:07:32.493Z,-7.77
2023-02-08T07:10:02.172Z,-7.74
2023-02-08T07:12:29.395Z,-7.67
2023-02-08T07:14:56.533Z,-7.61
2023-02-08T07:17:23.609Z,-7.57
2023-02-08T07:19:51.316Z,-7.45
2023-02-08T07:22:19.205Z,-7.33
2023-02-08T07:24:47.049Z,-7.21
2023-02-08T07:27:14.113Z,-7.20
2023-02-08T07:29:47.180Z,-7.13
2023-02-08T07:32:14.761Z,-7.09
2023-02-08T07:34:43.020Z,-7.14
2023-02-08T07:37:15.653Z,-7.03
2023-02-08T07:39:43.276Z,-6.96
2023-02-08T07:42:10.686Z,-6.92
2023-02-08T07:44:50.705Z,-6.79
2023-02-08T07:47:17.801Z,-6.73
2023-02-08T07:49:44.942Z,-6.57
2023-02-08T07:52:12.018Z,-6.35
2023-02-08T07:54:39.124Z,-6.38
2023-02-08T07:57:06.225Z,-6.34
2023-02-08T07:59:33.381Z,-6.07
2023-02-08T08:02:00.533Z,-5.75
2023-02-08T08:04:27.716Z,-5.27
2023-02-08T08:06:54.794Z,-4.63
2023-02-08T08:09:22.075Z,-4.13
2023-02-08T08:11:49.167Z,-3.74
2023-02-08T08:14:16.274Z,-3.65
2023-02-08T08:16:43.831Z,-3.05
2023-02-08T08:19:11.011Z,-2.91
2023-02-08T08:21:38.180Z,-3.00
2023-02-08T08:24:05.512Z,-2.43
2023-02-08T08:26:32.660Z,-2.18
2023-02-08T08:28:59.853Z,-2.29
2023-02-08T08:31:27.093Z,-2.49
2023-02-08T08:33:55.906Z,-2.14
2023-02-08T08:36:23.073Z,-2.07
2023-02-08T08:38:51.740Z,-1.58
2023-02-08T08:41:19.222Z,-1.07
2023-02-08T08:43:46.408Z,-0.83
2023-02-08T08:46:13.728Z,-1.13
2023-02-08T08:48:41.025Z,-1.06
2023-02-08T08:51:08.251Z,-1.44
2023-02-08T08:53:37.059Z,-1.44
2023-02-08T08:56:05.351Z,-1.38
2023-02-08T08:58:32.946Z,-1.66
2023-02-08T09:01:03.337Z,-1.68
2023-02-08T09:03:34.728Z,-1.67
2023-02-08T09:06:01.906Z,-1.77
2023-02-08T09:08:29.040Z,-1.83
2023-02-08T09:10:56.242Z,-1.95
2023-02-08T09:13:29.179Z,-2.10
2023-02-08T09:15:56.315Z,-2.28
2023-02-08T09:18:23.445Z,-2.24
2023-02-08T09:20:52.510Z,-1.98
2023-02-08T09:23:21.881Z,-2.03
2023-02-08T09:25:50.114Z,-2.03
2023-02-08T09:28:17.419Z,-2.12
2023-02-08T09:30:45.829Z,-1.84
2023-02-08T09:33:13.103Z,-1.88
2023-02-08T09:35:40.433Z,-2.00
2023-02-08T09:38:07.635Z,-1.79
2023-02-08T09:40:53.180Z,-1.92
2023-02-08T09:43:52.553Z,-1.39
2023-02-08T09:46:26.470Z,-1.57
2023-02-08T09:48:58.977Z,-1.57
2023-02-08T09:51:44.820Z,-1.33
2023-02-08T09:54:24.506Z,-0.90
2023-02-08T09:56:52.605Z,-0.70
2023-02-08T09:59:24.327Z,-0.96
2023-02-08T10:02:17.201Z,-1.07
2023-02-08T10:05:22.758Z,-1.03
2023-02-08T10:07:50.050Z,-0.76
2023-02-08T10:10:30.393Z,-0.80
2023-02-08T10:13:13.849Z,-0.77
2023-02-08T10:15:53.504Z,-1.18
2023-02-08T10:18:36.958Z,-0.96
2023-02-08T10:21:11.557Z,-1.05
2023-02-08T10:24:07.885Z,-0.92
2023-02-08T10:26:45.874Z,-0.86
2023-02-08T10:29:22.570Z,-0.97
2023-02-08T10:32:14.605Z,-1.13
2023-02-08T10:34:54.690Z,-0.93
2023-02-08T10:37:31.552Z,-0.99
2023-02-08T10:40:14.776Z,-1.05
2023-02-08T10:42:44.083Z,-1.29
2023-02-08T10:45:32.418Z,-1.52
2023-02-08T10:48:10.556Z,-1.54
2023-02-08T10:50:41.531Z,-1.23
2023-02-08T10:53:20.023Z,-1.08
2023-02-08T10:55:48.864Z,-1.08
2023-02-08T10:58:19.979Z,-1.33
2023-02-08T11:00:52.557Z,-1.03
2023-02-08T11:03:25.452Z,-0.96
2023-02-08T11:05:53.651Z,-0.73
2023-02-08T11:08:27.778Z,-0.46
2023-02-08T11:10:59.984Z,-0.84
2023-02-08T11:13:51.452Z,-0.71
2023-02-08T11:16:28.167Z,-0.66
2023-02-08T11:18:58.862Z,-0.47
2023-02-08T11:21:29.868Z,-0.23
2023-02-08T11:23:58.028Z,-0.29
2023-02-08T11:26:32.743Z,-0.55
2023-02-08T11:29:21.583Z,0.04
2023-02-08T11:31:54.689Z,-0.29
2023-02-08T11:34:39.288Z,-0.18
2023-02-08T11:37:28.936Z,-0.24
2023-02-08T11:39:58.664Z,-0.21
2023-02-08T11:42:34.992Z,0.01
2023-02-08T11:45:02.592Z,-0.16
2023-02-08T11:47:33.132Z,-0.08
2023-02-08T11:50:03.907Z,-0.09
2023-02-08T11:52:37.373Z,0.00
2023-02-08T11:55:16.705Z,0.07
2023-02-08T11:58:12.724Z,0.30
2023-02-08T12:00:58.115Z,0.17
2023-02-08T12:03:33.018Z,-0.10
2023-02-08T12:06:40.735Z,0.15
2023-02-08T12:09:23.479Z,0.37
2023-02-08T12:12:03.675Z,0.04
2023-02-08T12:14:43.262Z,-0.19
2023-02-08T12:17:16.144Z,-0.20
2023-02-08T12:20:05.108Z,-0.33
2023-02-08T12:22:43.957Z,-0.27
2023-02-08T12:25:32.737Z,-0.17
2023-02-08T12:28:24.433Z,0.10
2023-02-08T12:31:13.134Z,-0.17
2023-02-08T12:34:05.783Z,-0.29
2023-02-08T12:37:36.725Z,-0.34
2023-02-08T12:40:41.121Z,-0.26
2023-02-08T12:43:30.171Z,-0.38
2023-02-08T12:46:12.310Z,-0.30
2023-02-08T12:48:50.779Z,-0.44
2023-02-08T12:51:42.687Z,-0.57
2023-02-08T12:54:18.401Z,-0.54
2023-02-08T12:57:02.141Z,-0.52
2023-02-08T12:59:40.486Z,-0.58
2023-02-08T13:02:17.901Z,-0.65
2023-02-08T13:04:49.843Z,-0.60
2023-02-08T13:07:26.208Z,-0.46
2023-02-08T13:10:15.058Z,-0.31
2023-02-08T13:12:52.964Z,-0.43
2023-02-08T13:15:31.408Z,-0.46
2023-02-08T13:18:04.107Z,-0.42
2023-02-08T13:20:48.895Z,-0.45
2023-02-08T13:23:43.496Z,-0.47
2023-02-08T13:26:26.597Z,-0.62
2023-02-08T13:29:01.259Z,-0.76
2023-02-08T13:31:39.991Z,-0.54
2023-02-08T13:34:19.032Z,-0.60
2023-02-08T13:36:55.951Z,-0.65
2023-02-08T13:39:34.048Z,-0.69
2023-02-08T13:42:18.207Z,-0.77
2023-02-08T13:44:49.910Z,-0.65
2023-02-08T13:47:30.284Z,-0.79
2023-02-08T13:50:19.086Z,-0.84
2023-02-08T13:52:49.066Z,-0.78
2023-02-08T13:55:39.158Z,-0.80
2023-02-08T13:58:15.416Z,-0.77
2023-02-08T14:01:17.833Z,-0.76
2023-02-08T14:04:07.847Z,-0.78
2023-02-08T14:06:41.610Z,-0.77
2023-02-08T14:09:17.250Z,-0.89
2023-02-08T14:11:54.207Z,-0.99
2023-02-08T14:15:04.282Z,-0.88
2023-02-08T14:17:31.671Z,-0.77
2023-02-08T14:20:04.222Z,-0.79
2023-02-08T14:22:54.279Z,-0.80
2023-02-08T14:25:25.055Z,-0.80
2023-02-08T14:28:05.349Z,-0.81
2023-02-08T14:30:35.386Z,-0.82
2023-02-08T14:33:05.192Z,-0.98
2023-02-08T14:35:36.808Z,-0.87
2023-02-08T14:38:19.327Z,-0.86
2023-02-08T14:40:54.503Z,-0.85
2023-02-08T14:43:36.666Z,-0.90
2023-02-08T14:46:46.284Z,-0.99
2023-02-08T14:49:19.235Z,-1.02
2023-02-08T14:51:54.220Z,-0.93
2023-02-08T14:54:27.789Z,-1.02
2023-02-08T14:57:03.195Z,-1.10
2023-02-08T14:59:34.775Z,-1.13
2023-02-08T15:02:15.962Z,-1.24
2023-02-08T15:04:45.353Z,-1.12
2023-02-08T15:07:40.413Z,-1.13
2023-02-08T15:10:17.241Z,-1.26
2023-02-08T15:12:48.158Z,-1.26
2023-02-08T15:15:44.104Z,-1.34
2023-02-08T15:18:27.906Z,-1.36
2023-02-08T15:21:16.914Z,-1.42
2023-02-08T15:24:00.381Z,-1.54
2023-02-08T15:26:28.463Z,-1.58
2023-02-08T15:28:56.038Z,-1.64
2023-02-08T15:31:33.754Z,-1.63
2023-02-08T15:34:02.416Z,-1.59
2023-02-08T15:36:32.344Z,-1.60
2023-02-08T15:39:03.871Z,-1.77
2023-02-08T15:41:34.313Z,-1.76
2023-02-08T15:44:15.043Z,-1.82
2023-02-08T15:46:43.958Z,-1.88
2023-02-08T15:49:15.362Z,-1.90
2023-02-08T15:51:45.471Z,-1.89
2023-02-08T15:54:18.238Z,-2.02
2023-02-08T15:56:56.762Z,-2.07
2023-02-08T15:59:33.292Z,-2.13
2023-02-08T16:02:23.421Z,-2.21
2023-02-08T16:04:51.186Z,-2.21
2023-02-08T16:07:28.900Z,-2.31
2023-02-08T16:09:57.200Z,-2.31
2023-02-08T16:12:26.377Z,-2.38
2023-02-08T16:14:56.763Z,-2.43
2023-02-08T16:17:48.758Z,-2.50
2023-02-08T16:20:31.288Z,-2.55
2023-02-08T16:23:24.028Z,-2.60
2023-02-08T16:25:51.423Z,-2.60
2023-02-08T16:28:24.315Z,-2.63
2023-02-08T16:30:51.936Z,-2.67
2023-02-08T16:33:19.937Z,-2.73
2023-02-08T16:35:47.366Z,-2.70
2023-02-08T16:38:24.176Z,-2.79
2023-02-08T16:40:54.952Z,-2.74
2023-02-08T16:43:28.449Z,-2.73
2023-02-08T16:46:10.672Z,-2.79
2023-02-08T16:48:43.243Z,-2.75
2023-02-08T16:51:21.871Z,-2.78
2023-02-08T16:53:51.312Z,-2.83
2023-02-08T16:56:18.607Z,-2.85
2023-02-08T16:58:45.754Z,-2.86
2023-02-08T17:01:14.187Z,-2.88
2023-02-08T17:03:42.269Z,-2.92
2023-02-08T17:06:21.840Z,-2.92
2023-02-08T17:08:49.206Z,-2.99
2023-02-08T17:11:16.463Z,-3.02
2023-02-08T17:13:48.753Z,-2.98
2023-02-08T17:16:22.376Z,-3.07
2023-02-08T17:18:50.443Z,-3.10
2023-02-08T17:21:17.933Z,-3.03
2023-02-08T17:23:45.854Z,-3.09
2023-02-08T17:26:23.070Z,-3.07
2023-02-08T17:28:50.305Z,-3.09
2023-02-08T17:31:17.533Z,-3.13
2023-02-08T17:33:44.979Z,-3.08
2023-02-08T17:36:14.865Z,-3.04
2023-02-08T17:38:44.094Z,-2.99
2023-02-08T17:41:19.693Z,-3.06
2023-02-08T17:43:52.054Z,-3.02
2023-02-08T17:46:28.294Z,-3.08
2023-02-08T17:48:55.437Z,-3.04
2023-02-08T17:51:24.500Z,-3.12
2023-02-08T17:53:51.856Z,-3.22
2023-02-08T17:56:26.316Z,-3.28
2023-02-08T17:58:55.186Z,-3.24
2023-02-08T18:01:24.735Z,-3.19
2023-02-08T18:03:53.370Z,-3.24
2023-02-08T18:06:21.561Z,-3.29
2023-02-08T18:08:48.752Z,-3.35
2023-02-08T18:11:20.240Z,-3.30
2023-02-08T18:13:49.343Z,-3.33
2023-02-08T18:16:19.781Z,-3.40
2023-02-08T18:18:46.960Z,-3.45
2023-02-08T18:21:20.560Z,-3.39
2023-02-08T18:23:52.075Z,-3.43
2023-02-08T18:26:24.008Z,-3.48
2023-02-08T18:28:51.774Z,-3.52
2023-02-08T18:31:35.835Z,-3.52
2023-02-08T18:34:03.710Z,-3.54
2023-02-08T18:36:31.122Z,-3.56
2023-02-08T18:39:01.204Z,-3.50
2023-02-08T18:41:30.388Z,-3.54
2023-02-08T18:43:58.446Z,-3.55
2023-02-08T18:46:28.192Z,-3.57
2023-02-08T18:48:55.767Z,-3.59
2023-02-08T18:51:24.157Z,-3.63
2023-02-08T18:53:56.028Z,-3.66
2023-02-08T18:56:28.466Z,-3.67
2023-02-08T18:58:58.966Z,-3.71
2023-02-08T19:01:26.491Z,-3.74
2023-02-08T19:04:00.005Z,-3.82
2023-02-08T19:06:33.077Z,-3.88
2023-02-08T19:09:05.059Z,-3.95
2023-02-08T19:11:37.825Z,-3.89
2023-02-08T19:14:11.440Z,-3.94
2023-02-08T19:16:39.116Z,-3.90
2023-02-08T19:19:06.929Z,-3.82
2023-02-08T19:21:34.698Z,-3.76
2023-02-08T19:24:03.116Z,-3.66
2023-02-08T19:26:37.119Z,-3.64
2023-02-08T19:29:06.760Z,-3.62
2023-02-08T19:31:35.162Z,-3.62
2023-02-08T19:34:03.660Z,-3.60
2023-02-08T19:36:41.205Z,-3.64
2023-02-08T19:39:08.325Z,-3.65
2023-02-08T19:41:38.197Z,-3.64
2023-02-08T19:44:08.160Z,-3.65
2023-02-08T19:46:38.833Z,-3.69
2023-02-08T19:49:07.317Z,-3.71
2023-02-08T19:51:37.021Z,-3.74
2023-02-08T19:54:08.460Z,-3.77
2023-02-08T19:56:36.138Z,-3.76
2023-02-08T19:59:05.150Z,-3.80
2023-02-08T20:01:35.704Z,-3.80
2023-02-08T20:04:06.560Z,-3.75
2023-02-08T20:06:39.075Z,-3.78
2023-02-08T20:09:09.835Z,-3.80
2023-02-08T20:11:54.975Z,-3.79
2023-02-08T20:14:29.284Z,-3.72
2023-02-08T20:16:57.025Z,-3.66
2023-02-08T20:19:24.510Z,-3.68
2023-02-08T20:21:52.084Z,-3.60
2023-02-08T20:24:19.516Z,-3.66
2023-02-08T20:26:47.904Z,-3.64
2023-02-08T20:29:15.757Z,-3.62
2023-02-08T20:31:43.768Z,-3.65
2023-02-08T20:34:14.013Z,-3.68
2023-02-08T20:36:45.093Z,-3.63
2023-02-08T20:39:20.806Z,-3.64
2023-02-08T20:41:48.355Z,-3.59
2023-02-08T20:44:17.827Z,-3.54
2023-02-08T20:46:46.510Z,-3.53
2023-02-08T20:49:21.408Z,-3.43
2023-02-08T20:51:52.450Z,-3.42
2023-02-08T20:54:19.936Z,-3.46
2023-02-08T20:56:53.619Z,-3.40
2023-02-08T20:59:21.621Z,-3.39
2023-02-08T21:01:49.084Z,-3.40
2023-02-08T21:04:17.958Z,-3.19
2023-02-08T21:06:46.296Z,-3.28
2023-02-08T21:09:16.479Z,-3.25
2023-02-08T21:11:44.953Z,-3.27
2023-02-08T21:14:18.547Z,-3.31
2023-02-08T21:16:48.549Z,-3.24
2023-02-08T21:19:17.300Z,-3.24
2023-02-08T21:21:44.503Z,-3.31
2023-02-08T21:24:11.622Z,-3.30
2023-02-08T21:26:38.825Z,-3.32
2023-02-08T21:29:06.599Z,-3.31
2023-02-08T21:31:34.319Z,-3.25
2023-02-08T21:34:04.270Z,-3.22
2023-02-08T21:36:32.183Z,-3.22
2023-02-08T21:38:59.536Z,-3.08
2023-02-08T21:41:32.197Z,-3.08
2023-02-08T21:44:02.296Z,-3.07
2023-02-08T21:46:30.993Z,-3.03
2023-02-08T21:49:16.666Z,-3.02
2023-02-08T21:52:02.420Z,-2.95
2023-02-08T21:54:41.809Z,-3.07
2023-02-08T21:57:12.404Z,-2.94
2023-02-08T21:59:40.020Z,-2.97
2023-02-08T22:02:14.691Z,-2.93
2023-02-08T22:05:01.060Z,-2.99
2023-02-08T22:07:28.873Z,-2.93
2023-02-08T22:09:56.162Z,-2.98
2023-02-08T22:12:23.855Z,-3.02
2023-02-08T22:14:50.973Z,-2.92
2023-02-08T22:17:18.032Z,-2.90
2023-02-08T22:19:45.143Z,-2.99
2023-02-08T22:22:12.415Z,-2.99
2023-02-08T22:24:40.024Z,-3.06
2023-02-08T22:27:07.094Z,-3.08
2023-02-08T22:29:34.300Z,-3.06
2023-02-08T22:32:01.695Z,-3.06
2023-02-08T22:34:29.377Z,-3.10
2023-02-08T22:36:56.682Z,-3.08
2023-02-08T22:39:24.054Z,-3.10
2023-02-08T22:41:51.168Z,-3.17
2023-02-08T22:44:18.280Z,-3.11
2023-02-08T22:46:45.436Z,-3.12
2023-02-08T22:49:12.601Z,-3.14
2023-02-08T22:51:39.697Z,-3.17
2023-02-08T22:54:06.848Z,-3.15
2023-02-08T22:56:34.017Z,-3.18
2023-02-08T22:59:01.249Z,-3.19
2023-02-08T23:01:28.825Z,-3.16
2023-02-08T23:03:56.043Z,-3.19
2023-02-08T23:06:24.517Z,-3.15
2023-02-08T23:08:52.690Z,-3.19
2023-02-08T23:11:20.923Z,-3.19
2023-02-08T23:13:51.328Z,-3.19
2023-02-08T23:16:19.139Z,-3.23
2023-02-08T23:18:46.637Z,-3.30
2023-02-08T23:21:16.992Z,-3.30
2023-02-08T23:23:47.696Z,-3.26
2023-02-08T23:26:18.172Z,-3.15
2023-02-08T23:28:45.926Z,-3.28
2023-02-08T23:31:13.906Z,-3.32
2023-02-08T23:33:41.455Z,-3.42
2023-02-08T23:36:20.221Z,-3.48
2023-02-08T23:38:47.965Z,-3.49
2023-02-08T23:41:16.388Z,-3.49
2023-02-08T23:43:44.213Z,-3.48
2023-02-08T23:46:16.443Z,-3.48
2023-02-08T23:48:44.074Z,-3.54
2023-02-08T23:51:11.205Z,-3.52
2023-02-08T23:53:38.342Z,-3.56
2023-02-08T23:56:05.692Z,-3.57
2023-02-08T23:58:32.983Z,-3.67
